NCAR-RAP Real-Time Weather Data

Output produced by METARs form (24 April 2018  16:14 UTC)
found at http://weather.rap.ucar.edu/surface/
 
RJDC 241200Z 34005KT 260V050 9999 -SHRA FEW008 SCT015 BKN035 14/13 Q1005
RJDC 241100Z 33007KT 270V040 8000 -SHRA FEW006 SCT010 BKN030 15/14 Q1005
RJDC 241013Z 35006KT 320V040 8000 -SHRA FEW004 SCT008 BKN030 15/14 Q1004 RMK 1ST004 3ST008 6CU030 A2967
RJDC 241003Z 35007KT 280V040 8000 SHRA FEW004 SCT008 BKN030 15/14 Q1004 RMK 1ST004 3ST008 6CU030 A2967
RJDC 241000Z 35007KT 280V040 8000 -SHRA FEW004 SCT008 BKN030 15/14 Q1004
RJDC 240939Z 35008KT 310V030 5000 SHRA BR FEW004 SCT006 BKN020 15/15 Q1004 RMK 1ST004 3ST006 6CU020 A2966
RJDC 240933Z 35007KT 310V040 5000 -SHRA BR FEW004 SCT006 BKN020 15/15 Q1004 RMK 1ST004 3ST006 6CU020 A2966
RJDC 240900Z 01008KT 330V030 4500 SHRA BR FEW003 SCT006 BKN020 16/16 Q1004
RJDC 240800Z 32006KT 250V010 6000 -SHRA FEW003 SCT006 BKN015 17/17 Q1003
RJDC 240740Z 30005KT 190V340 2000 SHRA BR FEW002 SCT004 BKN015 18/18 Q1003 RMK 1ST002 3ST004 6CU015 A2964
RJDC 240709Z 29007KT 260V320 2000 -SHRA BR FEW003 SCT006 BKN020 18/18 Q1003 RMK 1ST003 3ST006 6CU020 A2964
RJDC 240700Z 28008KT 3000 -SHRA BR FEW003 SCT006 BKN020 18/18 Q1003
RJDC 240637Z 28008KT 260V330 3500 -SHRA BR FEW003 SCT006 BKN025 18/18 Q1003 RMK 1ST003 3ST006 6CU025 A2964
RJDC 240630Z 28008KT 260V330 5000 -SHRA BR FEW003 SCT006 BKN025 18/18 Q1003 RMK 1ST003 3ST006 6CU025 A2964
RJDC 240613Z VRB05KT 3000 R07/1300VP1800U -SHRA BR FEW001 SCT003 BKN006 19/19 Q1004 RMK 1ST001 3ST003 6ST006 A2965
RJDC 240606Z 06003KT 1800 R07/1100VP1800U SHRA BR FEW001 SCT003 BKN015 19/19 Q1003 RMK 1ST001 3ST003 6CU015 A2964
RJDC 240600Z 06004KT 1000 R07/0900V1500U SHRA BR FEW001 SCT003 BKN010 19/19 Q1003
RJDC 240540Z 06005KT 1800 R07/1800N -SHRA BR FEW001 SCT003 BKN015 18/18 Q1003 RMK 1ST001 3ST003 6CU015 A2964
RJDC 240529Z 07005KT 3000 -SHRA BR FEW002 SCT006 BKN020 18/18 Q1003 RMK 1ST002 3ST006 6CU020 A2964
RJDC 240508Z 08007KT 4000 BR FEW003 SCT006 BKN025 18/18 Q1003 RMK 1ST003 3ST006 6CU025 A2964
RJDC 240500Z 08007KT 2500 -SHRA BR FEW001 SCT002 BKN004 18/18 Q1003
RJDC 240424Z 08006KT 2500 R07/1300VP1800U -SHRA BR FEW002 SCT005 BKN010 17/17 Q1004 RMK 1ST002 3ST005 5CU010 A2966
RJDC 240418Z 09007KT 1800 R07/1200VP1800U SHRA BR FEW002 SCT003 BKN010 17/17 Q1004 RMK 1ST002 3ST003 5CU010 A2967
RJDC 240414Z 09007KT 1000 R07/1200V1600D SHRA BR FEW002 SCT003 BKN010 18/18 Q1004 RMK 1ST002 3ST003 5CU010 A2967
RJDC 240410Z 09007KT 1000 R07/1200VP1800D +SHRA FEW002 SCT003 BKN010 17/17 Q1004 RMK 1ST002 3ST003 5CU010 A2967
RJDC 240407Z 09007KT 2000 R07/1800D SHRA BR FEW002 SCT003 BKN010 17/17 Q1004 RMK 1ST002 3ST003 5CU010 A2967
RJDC 240402Z 09006KT 2000 -SHRA BR FEW002 SCT003 BKN010 17/17 Q1004 RMK 1ST002 3ST003 5CU010 A2967
RJDC 240400Z 09006KT 2000 SHRA BR FEW002 SCT003 BKN010 17/17 Q1004
RJDC 240304Z 09009KT 1400 R07/1300VP1800D SHRA BR FEW002 SCT003 BKN005 17/17 Q1005 RMK 1ST002 3ST003 5ST005 A2969
RJDC 240300Z 09008KT 1400 R07/1300VP1800D -SHRA BR FEW002 SCT003 BKN005 17/17 Q1005
RJDC 240232Z 07009KT 2500 -SHRA BR FEW002 SCT005 BKN010 17/17 Q1005 RMK 1ST002 3ST005 5CU010 A2970
RJDC 240223Z 07009KT 2800 R07/0900VP1800U SHRA BR FEW002 SCT005 BKN010 17/17 Q1006 RMK 1ST002 3ST005 5CU010 A2971
RJDC 240219Z 06008KT 2300 R07/0900VP1800D SHRA BR FEW002 SCT005 BKN010 17/17 Q1006 RMK 1ST002 3ST005 5CU010 A2972
RJDC 240216Z 06007KT 0800 R07/0900VP1800D +SHRA FEW001 SCT002 BKN005 17/17 Q1006 RMK 1ST001 3ST002 5ST005 A2972
RJDC 240213Z 06007KT 0800 R07/0900VP1800D +SHRA FEW001 SCT002 BKN005 17/17 Q1006 RMK 1ST001 3ST002 5ST005 A2973 RI++
RJDC 240205Z 07007KT 2800 SHRA BR FEW001 SCT002 BKN005 17/17 Q1006 RMK 1ST001 3ST002 5ST005 A2973
RJDC 240200Z 07006KT 3000 -SHRA BR FEW001 SCT002 BKN005 17/17 Q1006
RJDC 240130Z 07008KT 2500 SHRA BR FEW001 SCT005 BKN010 17/17 Q1006 RMK 1ST001 3ST005 5CU010 A2973
RJDC 240120Z 08010KT 2500 -SHRA BR FEW001 SCT005 BKN010 17/17 Q1006 RMK 1ST001 3ST005 5CU010 A2973
RJDC 240100Z 09011KT 1600 R07/1300VP1800D SHRA BR FEW001 SCT002 BKN005 17/17 Q1006
RJDC 240042Z 09011KT 2500 SHRA BR FEW002 SCT005 BKN010 17/17 Q1006 RMK 1ST002 3ST005 5CU010 A2973
RJDC 240031Z 09011KT 2500 -SHRA BR FEW002 SCT005 BKN010 17/17 Q1006 RMK 1ST002 3ST005 5CU010 A2973
RJDC 240014Z 08011KT 1600 R07/1200VP1800D SHRA BR FEW001 SCT002 BKN005 16/16 Q1007 RMK 1ST001 3ST002 5ST005 A2974
RJDC 240000Z 08012KT 1600 R07/1400VP1800N SHRA BR FEW001 SCT002 BKN003 16/16 Q1007
RJDC 232335Z 08013KT 2000 SHRA BR FEW001 SCT002 BKN015 16/16 Q1007 RMK 1ST001 4ST002 5CU015 A2975
RJDC 232332Z 08014KT 2300 -SHRA BR FEW001 SCT002 BKN015 16/16 Q1007 RMK 1ST001 4ST002 5CU015 A2975
RJDC 232315Z 09015KT 2500 -RA BR FEW002 SCT004 BKN010 17/17 Q1007 RMK 1ST002 3ST004 5ST010 A2975
RJDC 232305Z 09013KT 1800 RA BR FEW002 SCT004 BKN010 17/17 Q1008 RMK 1ST002 3ST004 5ST010 A2977
RJDC 232300Z 09012KT 2500 -RA BR FEW002 SCT004 BKN010 17/17 Q1007
RJDC 232226Z 10011KT 1600 R07/1300VP1800D RA BR FEW005 SCT010 BKN040 17/16 Q1008 RMK 1ST005 3ST010 6SC040 A2977
RJDC 232222Z 10012KT 1000 R07/1400VP1800D +RA FEW005 SCT010 BKN040 17/16 Q1008 RMK 2ST005 4ST010 6SC040 A2977
RJDC 232207Z 10010KT 3500 RA BR FEW005 SCT010 BKN050 17/17 Q1008 RMK 1ST005 3ST010 7SC050 A2977
RJDC 232200Z 10009KT 4500 -RA BR FEW005 SCT010 BKN050 17/17 Q1008
RJDC 232130Z 08010KT 8000 -RA FEW008 BKN050 BKN080 16/16 Q1008
RJDC 231200Z 06011KT 9999 FEW015 SCT050 BKN070 17/16 Q1013
RJDC 231100Z 06012KT 9999 FEW015 BKN045 BKN070 17/16 Q1013
RJDC 231000Z 06013KT 9999 FEW015 BKN045 17/16 Q1013
RJDC 230900Z 07011KT 9999 FEW010 BKN045 17/16 Q1013
RJDC 230800Z 07012KT 9999 FEW020 SCT050 BKN110 18/16 Q1013
RJDC 230700Z 07012KT 9999 FEW020 SCT070 BKN130 18/16 Q1013
RJDC 230600Z 07013KT 9999 FEW025 BKN070 BKN100 19/16 Q1014
RJDC 230500Z 07014KT 9999 FEW025 BKN070 BKN100 20/15 Q1015
RJDC 230400Z 07012KT 9999 FEW020 BKN070 19/15 Q1015
RJDC 230300Z 08009KT 9999 FEW020 SCT040 BKN070 18/15 Q1016
RJDC 230200Z 09006KT 9999 FEW015 SCT050 BKN070 17/15 Q1017
RJDC 230100Z 09007KT 9999 FEW020 BKN050 17/15 Q1017
RJDC 230000Z 09007KT 9999 FEW030 BKN070 17/15 Q1017
RJDC 222300Z 10006KT 9999 FEW030 BKN090 17/15 Q1017
RJDC 222200Z 12005KT 9999 FEW030 BKN090 16/15 Q1017
RJDC 222130Z 11006KT 9999 FEW030 BKN090 16/15 Q1017
RJDC 221200Z 06013KT 9999 FEW030 18/14 Q1017
RJDC 221100Z 06011KT 9999 FEW030 18/14 Q1017
RJDC 221000Z 06010KT 9999 FEW030 18/14 Q1017
RJDC 220900Z 07012KT 9999 FEW030 20/14 Q1017
RJDC 220800Z 08012KT 9999 FEW030 21/14 Q1017
RJDC 220700Z 08012KT 9999 FEW020 22/14 Q1017
RJDC 220600Z 08010KT 9999 FEW020 SCT/// 21/15 Q1017
RJDC 220500Z 08009KT 9999 FEW020 SCT/// 21/15 Q1018